sensor_id;sensor_type;location;lat;lon;timestamp;pressure;altitude;pressure_sealevel;temperature;humidity
35758;BME280;21879;50.110;18.900;2022-12-17T00:05:26;98519.33;;;0.36;67.78
35758;BME280;21879;50.110;18.900;2022-12-17T00:16:10;98534.89;;;0.36;67.51
35758;BME280;21879;50.110;18.900;2022-12-17T00:26:55;98545.71;;;0.50;67.35
35758;BME280;21879;50.110;18.900;2022-12-17T00:37:41;98547.74;;;0.25;66.43
35758;BME280;21879;50.110;18.900;2022-12-17T00:48:25;98555.60;;;-0.10;66.17
35758;BME280;21879;50.110;18.900;2022-12-17T00:59:10;98558.38;;;-0.41;66.59
35758;BME280;21879;50.110;18.900;2022-12-17T01:09:55;98564.46;;;-0.55;66.77
35758;BME280;21879;50.110;18.900;2022-12-17T01:20:40;98578.48;;;-0.60;67.13
35758;BME280;21879;50.110;18.900;2022-12-17T01:31:25;98597.23;;;-0.55;67.16
35758;BME280;21879;50.110;18.900;2022-12-17T01:42:11;98603.33;;;-0.46;67.14
35758;BME280;21879;50.110;18.900;2022-12-17T01:52:59;98604.52;;;-0.47;67.19
35758;BME280;21879;50.110;18.900;2022-12-17T02:03:44;98590.16;;;-0.68;66.87
35758;BME280;21879;50.110;18.900;2022-12-17T02:14:34;98588.75;;;-0.74;67.01
35758;BME280;21879;50.110;18.900;2022-12-17T02:25:32;98571.45;;;-0.81;67.11
35758;BME280;21879;50.110;18.900;2022-12-17T02:36:22;98556.76;;;-0.76;66.97
35758;BME280;21879;50.110;18.900;2022-12-17T02:47:22;98555.46;;;-0.79;66.98
35758;BME280;21879;50.110;18.900;2022-12-17T02:58:08;98628.02;;;-0.69;66.84
35758;BME280;21879;50.110;18.900;2022-12-17T03:08:53;98662.64;;;-0.70;66.87
35758;BME280;21879;50.110;18.900;2022-12-17T03:19:38;98685.33;;;-0.41;66.94
35758;BME280;21879;50.110;18.900;2022-12-17T03:30:23;98718.36;;;-0.24;66.64
35758;BME280;21879;50.110;18.900;2022-12-17T03:41:14;98723.41;;;-0.11;66.38
35758;BME280;21879;50.110;18.900;2022-12-17T03:51:58;98692.14;;;-0.16;65.77
35758;BME280;21879;50.110;18.900;2022-12-17T04:02:43;98680.00;;;-0.42;65.13
35758;BME280;21879;50.110;18.900;2022-12-17T04:13:28;98651.98;;;-0.82;65.10
35758;BME280;21879;50.110;18.900;2022-12-17T04:24:13;98656.70;;;-0.99;65.70
35758;BME280;21879;50.110;18.900;2022-12-17T04:34:58;98682.85;;;-0.98;65.93
35758;BME280;21879;50.110;18.900;2022-12-17T04:45:43;98711.00;;;-0.93;65.99
35758;BME280;21879;50.110;18.900;2022-12-17T04:56:28;98736.88;;;-0.95;66.03
35758;BME280;21879;50.110;18.900;2022-12-17T05:07:13;98741.84;;;-0.90;66.12
35758;BME280;21879;50.110;18.900;2022-12-17T05:17:54;98739.81;;;-0.99;66.10
35758;BME280;21879;50.110;18.900;2022-12-17T05:28:47;98752.56;;;-0.81;66.32
35758;BME280;21879;50.110;18.900;2022-12-17T05:39:36;98777.05;;;-0.79;66.09
35758;BME280;21879;50.110;18.900;2022-12-17T05:50:21;98759.83;;;-0.88;65.91
35758;BME280;21879;50.110;18.900;2022-12-17T06:01:06;98792.06;;;-0.98;66.02
35758;BME280;21879;50.110;18.900;2022-12-17T06:11:51;98812.20;;;-1.16;65.66
35758;BME280;21879;50.110;18.900;2022-12-17T06:22:36;98854.72;;;-1.24;65.80
35758;BME280;21879;50.110;18.900;2022-12-17T06:33:21;98857.38;;;-1.47;65.44
35758;BME280;21879;50.110;18.900;2022-12-17T06:44:06;98854.03;;;-1.62;65.76
35758;BME280;21879;50.110;18.900;2022-12-17T06:54:51;98888.58;;;-1.52;66.05
35758;BME280;21879;50.110;18.900;2022-12-17T07:05:38;98917.88;;;-1.44;65.83
35758;BME280;21879;50.110;18.900;2022-12-17T07:16:23;98930.29;;;-1.41;65.66
35758;BME280;21879;50.110;18.900;2022-12-17T07:27:08;98945.98;;;-1.36;65.62
35758;BME280;21879;50.110;18.900;2022-12-17T07:38:00;98961.15;;;-1.28;65.62
35758;BME280;21879;50.110;18.900;2022-12-17T07:48:44;98974.76;;;-1.17;65.46
35758;BME280;21879;50.110;18.900;2022-12-17T07:59:29;98995.47;;;-1.07;65.53
35758;BME280;21879;50.110;18.900;2022-12-17T08:10:15;99004.07;;;-0.89;65.40
35758;BME280;21879;50.110;18.900;2022-12-17T08:21:12;99025.34;;;-0.95;64.93
35758;BME280;21879;50.110;18.900;2022-12-17T08:32:29;99029.34;;;-1.06;64.97
35758;BME280;21879;50.110;18.900;2022-12-17T08:43:38;99046.77;;;-0.92;65.20
35758;BME280;21879;50.110;18.900;2022-12-17T08:54:53;99056.23;;;-0.86;64.72
35758;BME280;21879;50.110;18.900;2022-12-17T09:05:56;99047.43;;;-0.97;64.61
35758;BME280;21879;50.110;18.900;2022-12-17T09:17:12;99064.97;;;-0.90;64.71
35758;BME280;21879;50.110;18.900;2022-12-17T09:28:28;99062.06;;;-0.90;64.76
35758;BME280;21879;50.110;18.900;2022-12-17T09:39:44;99062.67;;;-1.00;64.63
35758;BME280;21879;50.110;18.900;2022-12-17T09:51:02;99081.31;;;-1.07;64.73
35758;BME280;21879;50.110;18.900;2022-12-17T10:02:19;99093.92;;;-0.79;64.98
35758;BME280;21879;50.110;18.900;2022-12-17T10:13:34;99101.98;;;-0.66;64.48
35758;BME280;21879;50.110;18.900;2022-12-17T10:24:46;99112.64;;;-0.72;63.79
35758;BME280;21879;50.110;18.900;2022-12-17T10:36:03;99122.05;;;-0.80;64.04
35758;BME280;21879;50.110;18.900;2022-12-17T10:47:15;99125.20;;;-0.90;64.18
35758;BME280;21879;50.110;18.900;2022-12-17T10:58:03;99132.65;;;-0.88;64.46
35758;BME280;21879;50.110;18.900;2022-12-17T11:08:54;99139.55;;;-0.75;64.46
35758;BME280;21879;50.110;18.900;2022-12-17T11:19:45;99141.79;;;-0.78;63.96
35758;BME280;21879;50.110;18.900;2022-12-17T11:30:35;99141.09;;;-0.83;63.97
35758;BME280;21879;50.110;18.900;2022-12-17T11:41:33;99172.37;;;-0.82;64.37
35758;BME280;21879;50.110;18.900;2022-12-17T11:52:24;99177.00;;;-0.69;64.53
35758;BME280;21879;50.110;18.900;2022-12-17T12:03:33;99206.38;;;-0.64;64.31
35758;BME280;21879;50.110;18.900;2022-12-17T12:14:30;99214.08;;;-0.65;64.47
35758;BME280;21879;50.110;18.900;2022-12-17T12:25:31;99226.36;;;-0.88;64.29
35758;BME280;21879;50.110;18.900;2022-12-17T12:36:20;99243.08;;;-1.00;64.96
35758;BME280;21879;50.110;18.900;2022-12-17T12:47:12;99243.70;;;-1.05;65.20
35758;BME280;21879;50.110;18.900;2022-12-17T12:58:03;99254.88;;;-1.07;65.34
35758;BME280;21879;50.110;18.900;2022-12-17T13:08:50;99265.87;;;-1.21;65.44
35758;BME280;21879;50.110;18.900;2022-12-17T13:19:33;99285.13;;;-1.25;65.74
35758;BME280;21879;50.110;18.900;2022-12-17T13:30:20;99298.66;;;-1.09;65.93
35758;BME280;21879;50.110;18.900;2022-12-17T13:41:01;99315.16;;;-1.10;65.82
35758;BME280;21879;50.110;18.900;2022-12-17T13:51:36;99326.62;;;-1.21;66.10
35758;BME280;21879;50.110;18.900;2022-12-17T14:02:04;99344.74;;;-1.27;66.47
35758;BME280;21879;50.110;18.900;2022-12-17T14:12:32;99359.98;;;-1.36;66.67
35758;BME280;21879;50.110;18.900;2022-12-17T14:23:03;99380.52;;;-1.14;66.86
35758;BME280;21879;50.110;18.900;2022-12-17T14:33:33;99393.08;;;-1.05;66.62
35758;BME280;21879;50.110;18.900;2022-12-17T14:44:02;99400.97;;;-1.14;66.36
35758;BME280;21879;50.110;18.900;2022-12-17T14:54:30;99420.38;;;-1.29;66.18
35758;BME280;21879;50.110;18.900;2022-12-17T15:04:59;99435.66;;;-1.31;66.50
35758;BME280;21879;50.110;18.900;2022-12-17T15:15:28;99458.27;;;-1.18;66.78
35758;BME280;21879;50.110;18.900;2022-12-17T15:25:55;99470.55;;;-0.98;66.68
35758;BME280;21879;50.110;18.900;2022-12-17T15:36:23;99489.23;;;-0.93;66.48
35758;BME280;21879;50.110;18.900;2022-12-17T15:46:50;99508.19;;;-0.92;66.60
35758;BME280;21879;50.110;18.900;2022-12-17T15:57:18;99521.42;;;-0.80;66.31
35758;BME280;21879;50.110;18.900;2022-12-17T16:07:45;99537.01;;;-0.93;66.07
35758;BME280;21879;50.110;18.900;2022-12-17T16:18:13;99546.52;;;-1.18;65.96
35758;BME280;21879;50.110;18.900;2022-12-17T16:28:42;99564.26;;;-1.22;66.44
35758;BME280;21879;50.110;18.900;2022-12-17T16:39:15;99569.96;;;-1.03;66.43
35758;BME280;21879;50.110;18.900;2022-12-17T16:49:43;99588.80;;;-1.39;65.94
35758;BME280;21879;50.110;18.900;2022-12-17T17:00:12;99601.40;;;-1.53;66.32
35758;BME280;21879;50.110;18.900;2022-12-17T17:10:40;99612.50;;;-1.65;66.38
35758;BME280;21879;50.110;18.900;2022-12-17T17:21:15;99624.73;;;-1.78;66.34
35758;BME280;21879;50.110;18.900;2022-12-17T17:31:48;99648.88;;;-1.76;66.54
35758;BME280;21879;50.110;18.900;2022-12-17T17:42:36;99667.07;;;-1.68;66.49
35758;BME280;21879;50.110;18.900;2022-12-17T17:53:04;99680.60;;;-1.76;66.18
35758;BME280;21879;50.110;18.900;2022-12-17T18:03:31;99701.34;;;-1.99;66.19
35758;BME280;21879;50.110;18.900;2022-12-17T18:14:00;99712.55;;;-1.90;66.62
35758;BME280;21879;50.110;18.900;2022-12-17T18:24:28;99732.00;;;-1.75;66.26
35758;BME280;21879;50.110;18.900;2022-12-17T18:34:56;99742.38;;;-1.99;66.07
35758;BME280;21879;50.110;18.900;2022-12-17T18:45:23;99760.27;;;-2.05;66.34
35758;BME280;21879;50.110;18.900;2022-12-17T18:55:51;99774.84;;;-1.95;66.51
35758;BME280;21879;50.110;18.900;2022-12-17T19:06:18;99785.77;;;-1.71;66.45
35758;BME280;21879;50.110;18.900;2022-12-17T19:16:46;99795.77;;;-1.81;66.03
35758;BME280;21879;50.110;18.900;2022-12-17T19:27:14;99807.98;;;-1.87;65.82
35758;BME280;21879;50.110;18.900;2022-12-17T19:37:41;99817.25;;;-1.93;65.78
35758;BME280;21879;50.110;18.900;2022-12-17T19:48:09;99834.32;;;-1.98;65.90
35758;BME280;21879;50.110;18.900;2022-12-17T19:58:39;99854.70;;;-1.93;65.63
35758;BME280;21879;50.110;18.900;2022-12-17T20:09:07;99861.86;;;-2.16;65.46
35758;BME280;21879;50.110;18.900;2022-12-17T20:19:34;99882.73;;;-2.24;65.62
35758;BME280;21879;50.110;18.900;2022-12-17T20:30:02;99891.66;;;-2.08;65.85
35758;BME280;21879;50.110;18.900;2022-12-17T20:40:30;99897.75;;;-1.92;65.68
35758;BME280;21879;50.110;18.900;2022-12-17T20:51:00;99906.50;;;-1.82;65.41
35758;BME280;21879;50.110;18.900;2022-12-17T21:01:31;99924.23;;;-1.97;65.40
35758;BME280;21879;50.110;18.900;2022-12-17T21:12:00;99936.17;;;-1.99;65.57
35758;BME280;21879;50.110;18.900;2022-12-17T21:22:27;99950.55;;;-1.93;65.13
35758;BME280;21879;50.110;18.900;2022-12-17T21:32:56;99966.06;;;-2.01;65.23
35758;BME280;21879;50.110;18.900;2022-12-17T21:43:22;99985.54;;;-1.86;65.79
35758;BME280;21879;50.110;18.900;2022-12-17T21:53:52;99999.10;;;-1.56;65.72
35758;BME280;21879;50.110;18.900;2022-12-17T22:04:20;100005.03;;;-1.45;65.35
35758;BME280;21879;50.110;18.900;2022-12-17T22:14:48;100006.86;;;-1.43;64.98
35758;BME280;21879;50.110;18.900;2022-12-17T22:25:16;100016.98;;;-1.51;64.95
35758;BME280;21879;50.110;18.900;2022-12-17T22:35:44;100023.42;;;-1.43;64.84
35758;BME280;21879;50.110;18.900;2022-12-17T22:46:32;100034.28;;;-1.47;64.69
35758;BME280;21879;50.110;18.900;2022-12-17T22:56:59;100044.86;;;-1.61;64.40
35758;BME280;21879;50.110;18.900;2022-12-17T23:07:47;100063.77;;;-1.44;65.04
35758;BME280;21879;50.110;18.900;2022-12-17T23:18:15;100071.98;;;-1.38;64.52
35758;BME280;21879;50.110;18.900;2022-12-17T23:28:43;100085.70;;;-1.57;64.38
35758;BME280;21879;50.110;18.900;2022-12-17T23:39:11;100095.64;;;-1.65;64.74
35758;BME280;21879;50.110;18.900;2022-12-17T23:49:39;100103.14;;;-1.56;64.65
